sensor_id;sensor_type;location;lat;lon;timestamp;P1;durP1;ratioP1;P2;durP2;ratioP2
65377;SDS011;51982;51.042;13.806;2024-01-11T00:00:58;38.70;;;13.75;;
65377;SDS011;51982;51.042;13.806;2024-01-11T00:03:24;41.97;;;14.70;;
65377;SDS011;51982;51.042;13.806;2024-01-11T00:05:49;34.30;;;14.40;;
65377;SDS011;51982;51.042;13.806;2024-01-11T00:08:14;24.63;;;12.38;;
65377;SDS011;51982;51.042;13.806;2024-01-11T00:10:40;32.13;;;12.65;;
65377;SDS011;51982;51.042;13.806;2024-01-11T00:13:05;35.83;;;15.82;;
65377;SDS011;51982;51.042;13.806;2024-01-11T00:15:30;33.75;;;15.75;;
65377;SDS011;51982;51.042;13.806;2024-01-11T00:17:55;34.00;;;14.10;;
65377;SDS011;51982;51.042;13.806;2024-01-11T00:20:20;36.85;;;13.07;;
65377;SDS011;51982;51.042;13.806;2024-01-11T00:22:46;31.95;;;12.32;;
65377;SDS011;51982;51.042;13.806;2024-01-11T00:25:11;34.13;;;13.50;;
65377;SDS011;51982;51.042;13.806;2024-01-11T00:27:36;33.13;;;12.65;;
65377;SDS011;51982;51.042;13.806;2024-01-11T00:30:02;28.88;;;12.10;;
65377;SDS011;51982;51.042;13.806;2024-01-11T00:32:27;32.88;;;12.98;;
65377;SDS011;51982;51.042;13.806;2024-01-11T00:34:52;34.05;;;13.60;;
65377;SDS011;51982;51.042;13.806;2024-01-11T00:37:17;26.77;;;12.30;;
65377;SDS011;51982;51.042;13.806;2024-01-11T00:39:43;24.85;;;11.43;;
65377;SDS011;51982;51.042;13.806;2024-01-11T00:42:08;33.67;;;11.95;;
65377;SDS011;51982;51.042;13.806;2024-01-11T00:44:34;29.95;;;12.18;;
65377;SDS011;51982;51.042;13.806;2024-01-11T00:46:59;35.90;;;13.45;;
65377;SDS011;51982;51.042;13.806;2024-01-11T00:49:24;27.25;;;11.10;;
65377;SDS011;51982;51.042;13.806;2024-01-11T00:51:49;28.58;;;12.10;;
65377;SDS011;51982;51.042;13.806;2024-01-11T00:54:15;23.60;;;10.75;;
65377;SDS011;51982;51.042;13.806;2024-01-11T00:56:40;28.60;;;11.25;;
65377;SDS011;51982;51.042;13.806;2024-01-11T00:59:05;29.50;;;11.48;;
65377;SDS011;51982;51.042;13.806;2024-01-11T01:01:30;31.13;;;12.38;;
65377;SDS011;51982;51.042;13.806;2024-01-11T01:03:56;26.92;;;11.02;;
65377;SDS011;51982;51.042;13.806;2024-01-11T01:06:21;25.77;;;11.07;;
65377;SDS011;51982;51.042;13.806;2024-01-11T01:08:46;26.95;;;12.13;;
65377;SDS011;51982;51.042;13.806;2024-01-11T01:11:12;33.72;;;11.98;;
65377;SDS011;51982;51.042;13.806;2024-01-11T01:13:37;27.73;;;11.70;;
65377;SDS011;51982;51.042;13.806;2024-01-11T01:16:03;25.15;;;10.95;;
65377;SDS011;51982;51.042;13.806;2024-01-11T01:18:28;29.17;;;11.50;;
65377;SDS011;51982;51.042;13.806;2024-01-11T01:20:53;25.70;;;9.10;;
65377;SDS011;51982;51.042;13.806;2024-01-11T01:23:19;25.50;;;10.27;;
65377;SDS011;51982;51.042;13.806;2024-01-11T01:25:44;22.80;;;9.55;;
65377;SDS011;51982;51.042;13.806;2024-01-11T01:28:10;24.10;;;9.18;;
65377;SDS011;51982;51.042;13.806;2024-01-11T01:30:35;21.05;;;9.43;;
65377;SDS011;51982;51.042;13.806;2024-01-11T01:33:00;21.88;;;9.07;;
65377;SDS011;51982;51.042;13.806;2024-01-11T01:35:25;18.88;;;8.63;;
65377;SDS011;51982;51.042;13.806;2024-01-11T01:37:51;23.77;;;9.07;;
65377;SDS011;51982;51.042;13.806;2024-01-11T01:40:16;20.20;;;9.75;;
65377;SDS011;51982;51.042;13.806;2024-01-11T01:42:42;21.50;;;9.45;;
65377;SDS011;51982;51.042;13.806;2024-01-11T01:45:08;19.50;;;9.05;;
65377;SDS011;51982;51.042;13.806;2024-01-11T01:47:34;22.50;;;9.38;;
65377;SDS011;51982;51.042;13.806;2024-01-11T01:49:59;21.40;;;9.40;;
65377;SDS011;51982;51.042;13.806;2024-01-11T01:52:24;27.95;;;9.95;;
65377;SDS011;51982;51.042;13.806;2024-01-11T01:54:50;20.42;;;9.50;;
65377;SDS011;51982;51.042;13.806;2024-01-11T01:57:15;22.63;;;9.77;;
65377;SDS011;51982;51.042;13.806;2024-01-11T01:59:43;23.10;;;9.55;;
65377;SDS011;51982;51.042;13.806;2024-01-11T02:02:10;25.48;;;9.77;;
65377;SDS011;51982;51.042;13.806;2024-01-11T02:04:36;18.25;;;8.65;;
65377;SDS011;51982;51.042;13.806;2024-01-11T02:07:02;27.98;;;9.75;;
65377;SDS011;51982;51.042;13.806;2024-01-11T02:09:28;20.00;;;9.35;;
65377;SDS011;51982;51.042;13.806;2024-01-11T02:11:55;21.88;;;9.43;;
65377;SDS011;51982;51.042;13.806;2024-01-11T02:14:20;20.23;;;9.15;;
65377;SDS011;51982;51.042;13.806;2024-01-11T02:16:46;23.15;;;10.07;;
65377;SDS011;51982;51.042;13.806;2024-01-11T02:19:12;19.40;;;8.73;;
65377;SDS011;51982;51.042;13.806;2024-01-11T02:21:38;18.45;;;9.50;;
65377;SDS011;51982;51.042;13.806;2024-01-11T02:24:04;27.45;;;9.30;;
65377;SDS011;51982;51.042;13.806;2024-01-11T02:26:30;20.42;;;9.52;;
65377;SDS011;51982;51.042;13.806;2024-01-11T02:28:55;22.40;;;9.20;;
65377;SDS011;51982;51.042;13.806;2024-01-11T02:31:20;25.77;;;9.63;;
65377;SDS011;51982;51.042;13.806;2024-01-11T02:33:46;23.42;;;9.00;;
65377;SDS011;51982;51.042;13.806;2024-01-11T02:36:12;19.27;;;8.68;;
65377;SDS011;51982;51.042;13.806;2024-01-11T02:38:38;23.02;;;9.65;;
65377;SDS011;51982;51.042;13.806;2024-01-11T02:41:06;20.52;;;8.60;;
65377;SDS011;51982;51.042;13.806;2024-01-11T02:43:32;22.25;;;9.88;;
65377;SDS011;51982;51.042;13.806;2024-01-11T02:45:59;18.55;;;9.05;;
65377;SDS011;51982;51.042;13.806;2024-01-11T02:48:27;24.33;;;9.32;;
65377;SDS011;51982;51.042;13.806;2024-01-11T02:50:53;20.23;;;9.40;;
65377;SDS011;51982;51.042;13.806;2024-01-11T02:53:18;20.40;;;8.43;;
65377;SDS011;51982;51.042;13.806;2024-01-11T02:55:44;17.27;;;8.50;;
65377;SDS011;51982;51.042;13.806;2024-01-11T02:58:09;25.10;;;9.40;;
65377;SDS011;51982;51.042;13.806;2024-01-11T03:00:34;19.13;;;8.75;;
65377;SDS011;51982;51.042;13.806;2024-01-11T03:02:59;23.73;;;9.27;;
65377;SDS011;51982;51.042;13.806;2024-01-11T03:05:24;21.42;;;9.63;;
65377;SDS011;51982;51.042;13.806;2024-01-11T03:07:50;23.63;;;9.25;;
65377;SDS011;51982;51.042;13.806;2024-01-11T03:10:15;20.48;;;8.90;;
65377;SDS011;51982;51.042;13.806;2024-01-11T03:12:40;20.27;;;9.15;;
65377;SDS011;51982;51.042;13.806;2024-01-11T03:15:05;21.30;;;9.25;;
65377;SDS011;51982;51.042;13.806;2024-01-11T03:17:32;19.05;;;8.77;;
65377;SDS011;51982;51.042;13.806;2024-01-11T03:19:59;24.27;;;8.80;;
65377;SDS011;51982;51.042;13.806;2024-01-11T03:22:24;22.45;;;9.25;;
65377;SDS011;51982;51.042;13.806;2024-01-11T03:24:50;18.65;;;8.18;;
65377;SDS011;51982;51.042;13.806;2024-01-11T03:27:15;22.45;;;8.65;;
65377;SDS011;51982;51.042;13.806;2024-01-11T03:29:40;20.55;;;8.20;;
65377;SDS011;51982;51.042;13.806;2024-01-11T03:32:06;22.38;;;9.38;;
65377;SDS011;51982;51.042;13.806;2024-01-11T03:34:31;18.75;;;8.43;;
65377;SDS011;51982;51.042;13.806;2024-01-11T03:36:56;17.50;;;8.73;;
65377;SDS011;51982;51.042;13.806;2024-01-11T03:39:22;16.58;;;8.50;;
65377;SDS011;51982;51.042;13.806;2024-01-11T03:41:47;20.60;;;8.80;;
65377;SDS011;51982;51.042;13.806;2024-01-11T03:44:12;18.38;;;8.65;;
65377;SDS011;51982;51.042;13.806;2024-01-11T03:46:38;14.38;;;7.63;;
65377;SDS011;51982;51.042;13.806;2024-01-11T03:49:03;22.65;;;7.47;;
65377;SDS011;51982;51.042;13.806;2024-01-11T03:51:28;21.42;;;7.95;;
65377;SDS011;51982;51.042;13.806;2024-01-11T03:53:54;20.40;;;5.75;;
65377;SDS011;51982;51.042;13.806;2024-01-11T03:56:19;19.67;;;7.97;;
65377;SDS011;51982;51.042;13.806;2024-01-11T03:58:44;24.95;;;8.45;;
65377;SDS011;51982;51.042;13.806;2024-01-11T04:01:10;16.60;;;7.25;;
65377;SDS011;51982;51.042;13.806;2024-01-11T04:03:35;23.90;;;8.32;;
65377;SDS011;51982;51.042;13.806;2024-01-11T04:06:01;21.02;;;7.57;;
65377;SDS011;51982;51.042;13.806;2024-01-11T04:08:26;16.13;;;7.07;;
65377;SDS011;51982;51.042;13.806;2024-01-11T04:10:51;15.00;;;7.75;;
65377;SDS011;51982;51.042;13.806;2024-01-11T04:13:17;17.73;;;7.60;;
65377;SDS011;51982;51.042;13.806;2024-01-11T04:15:42;24.65;;;8.77;;
65377;SDS011;51982;51.042;13.806;2024-01-11T04:18:07;19.02;;;7.93;;
65377;SDS011;51982;51.042;13.806;2024-01-11T04:20:32;17.35;;;7.85;;
65377;SDS011;51982;51.042;13.806;2024-01-11T04:22:58;18.25;;;8.10;;
65377;SDS011;51982;51.042;13.806;2024-01-11T04:25:23;19.73;;;8.05;;
65377;SDS011;51982;51.042;13.806;2024-01-11T04:27:48;15.23;;;7.38;;
65377;SDS011;51982;51.042;13.806;2024-01-11T04:30:13;20.92;;;8.27;;
65377;SDS011;51982;51.042;13.806;2024-01-11T04:32:38;16.33;;;7.70;;
65377;SDS011;51982;51.042;13.806;2024-01-11T04:35:04;17.15;;;7.35;;
65377;SDS011;51982;51.042;13.806;2024-01-11T04:37:29;18.40;;;8.13;;
65377;SDS011;51982;51.042;13.806;2024-01-11T04:39:55;21.50;;;9.10;;
65377;SDS011;51982;51.042;13.806;2024-01-11T04:42:20;18.85;;;7.13;;
65377;SDS011;51982;51.042;13.806;2024-01-11T04:44:45;19.02;;;7.47;;
65377;SDS011;51982;51.042;13.806;2024-01-11T04:47:10;24.55;;;7.53;;
65377;SDS011;51982;51.042;13.806;2024-01-11T04:49:36;15.88;;;6.95;;
65377;SDS011;51982;51.042;13.806;2024-01-11T04:52:01;19.58;;;7.65;;
65377;SDS011;51982;51.042;13.806;2024-01-11T04:54:26;23.67;;;7.32;;
65377;SDS011;51982;51.042;13.806;2024-01-11T04:56:51;17.25;;;7.82;;
65377;SDS011;51982;51.042;13.806;2024-01-11T04:59:17;18.73;;;7.82;;
65377;SDS011;51982;51.042;13.806;2024-01-11T05:01:42;19.50;;;8.60;;
65377;SDS011;51982;51.042;13.806;2024-01-11T05:04:08;17.05;;;7.97;;
65377;SDS011;51982;51.042;13.806;2024-01-11T05:06:34;24.13;;;8.73;;
65377;SDS011;51982;51.042;13.806;2024-01-11T05:08:59;18.90;;;8.93;;
65377;SDS011;51982;51.042;13.806;2024-01-11T05:11:24;19.02;;;7.95;;
65377;SDS011;51982;51.042;13.806;2024-01-11T05:13:50;16.95;;;6.72;;
65377;SDS011;51982;51.042;13.806;2024-01-11T05:16:23;15.15;;;7.00;;
65377;SDS011;51982;51.042;13.806;2024-01-11T05:18:51;20.52;;;8.20;;
65377;SDS011;51982;51.042;13.806;2024-01-11T05:21:17;19.83;;;8.30;;
65377;SDS011;51982;51.042;13.806;2024-01-11T05:23:42;29.98;;;9.70;;
65377;SDS011;51982;51.042;13.806;2024-01-11T05:26:08;20.88;;;8.82;;
65377;SDS011;51982;51.042;13.806;2024-01-11T05:28:34;18.20;;;7.40;;
65377;SDS011;51982;51.042;13.806;2024-01-11T05:30:59;23.17;;;7.47;;
65377;SDS011;51982;51.042;13.806;2024-01-11T05:33:24;16.25;;;6.85;;
65377;SDS011;51982;51.042;13.806;2024-01-11T05:35:49;23.95;;;7.93;;
65377;SDS011;51982;51.042;13.806;2024-01-11T05:38:15;16.55;;;7.53;;
65377;SDS011;51982;51.042;13.806;2024-01-11T05:40:40;17.90;;;7.82;;
65377;SDS011;51982;51.042;13.806;2024-01-11T05:43:06;19.38;;;7.53;;
65377;SDS011;51982;51.042;13.806;2024-01-11T05:45:31;20.38;;;7.45;;
65377;SDS011;51982;51.042;13.806;2024-01-11T05:47:58;16.50;;;7.15;;
65377;SDS011;51982;51.042;13.806;2024-01-11T05:50:24;16.80;;;7.07;;
65377;SDS011;51982;51.042;13.806;2024-01-11T05:52:49;17.50;;;8.05;;
65377;SDS011;51982;51.042;13.806;2024-01-11T05:55:16;16.77;;;7.53;;
65377;SDS011;51982;51.042;13.806;2024-01-11T05:57:41;14.70;;;6.68;;
65377;SDS011;51982;51.042;13.806;2024-01-11T06:00:06;18.83;;;7.88;;
65377;SDS011;51982;51.042;13.806;2024-01-11T06:02:32;13.88;;;6.88;;
65377;SDS011;51982;51.042;13.806;2024-01-11T06:04:57;21.90;;;8.10;;
65377;SDS011;51982;51.042;13.806;2024-01-11T06:07:22;14.50;;;7.18;;
65377;SDS011;51982;51.042;13.806;2024-01-11T06:09:48;15.93;;;6.82;;
65377;SDS011;51982;51.042;13.806;2024-01-11T06:12:13;17.45;;;7.72;;
65377;SDS011;51982;51.042;13.806;2024-01-11T06:14:39;15.95;;;7.57;;
65377;SDS011;51982;51.042;13.806;2024-01-11T06:17:04;19.23;;;7.75;;
65377;SDS011;51982;51.042;13.806;2024-01-11T06:19:29;16.80;;;7.50;;
65377;SDS011;51982;51.042;13.806;2024-01-11T06:21:54;19.10;;;8.05;;
65377;SDS011;51982;51.042;13.806;2024-01-11T06:24:20;18.00;;;8.18;;
65377;SDS011;51982;51.042;13.806;2024-01-11T06:26:45;21.80;;;8.63;;
65377;SDS011;51982;51.042;13.806;2024-01-11T06:29:10;15.35;;;6.85;;
65377;SDS011;51982;51.042;13.806;2024-01-11T06:31:35;17.15;;;7.75;;
65377;SDS011;51982;51.042;13.806;2024-01-11T06:34:01;20.45;;;8.65;;
65377;SDS011;51982;51.042;13.806;2024-01-11T06:36:26;19.27;;;7.93;;
65377;SDS011;51982;51.042;13.806;2024-01-11T06:38:51;17.33;;;7.57;;
65377;SDS011;51982;51.042;13.806;2024-01-11T06:41:16;15.88;;;7.00;;
65377;SDS011;51982;51.042;13.806;2024-01-11T06:43:41;19.45;;;7.60;;
65377;SDS011;51982;51.042;13.806;2024-01-11T06:46:19;18.83;;;8.65;;
65377;SDS011;51982;51.042;13.806;2024-01-11T06:48:46;16.27;;;7.63;;
65377;SDS011;51982;51.042;13.806;2024-01-11T06:51:14;17.00;;;7.65;;
65377;SDS011;51982;51.042;13.806;2024-01-11T06:53:40;16.10;;;7.50;;
65377;SDS011;51982;51.042;13.806;2024-01-11T06:56:13;15.80;;;7.63;;
65377;SDS011;51982;51.042;13.806;2024-01-11T06:58:42;18.40;;;7.43;;
65377;SDS011;51982;51.042;13.806;2024-01-11T07:01:08;19.55;;;7.25;;
65377;SDS011;51982;51.042;13.806;2024-01-11T07:03:33;18.08;;;7.15;;
65377;SDS011;51982;51.042;13.806;2024-01-11T07:05:59;16.02;;;7.30;;
65377;SDS011;51982;51.042;13.806;2024-01-11T07:08:24;19.48;;;8.65;;
65377;SDS011;51982;51.042;13.806;2024-01-11T07:10:49;15.65;;;7.60;;
65377;SDS011;51982;51.042;13.806;2024-01-11T07:13:14;17.50;;;8.25;;
65377;SDS011;51982;51.042;13.806;2024-01-11T07:15:41;15.07;;;7.53;;
65377;SDS011;51982;51.042;13.806;2024-01-11T07:18:07;13.75;;;5.60;;
65377;SDS011;51982;51.042;13.806;2024-01-11T07:20:32;15.35;;;6.13;;
65377;SDS011;51982;51.042;13.806;2024-01-11T07:22:58;13.73;;;6.03;;
65377;SDS011;51982;51.042;13.806;2024-01-11T07:25:24;16.13;;;6.90;;
65377;SDS011;51982;51.042;13.806;2024-01-11T07:27:49;16.45;;;6.97;;
65377;SDS011;51982;51.042;13.806;2024-01-11T07:30:14;14.98;;;6.38;;
65377;SDS011;51982;51.042;13.806;2024-01-11T07:32:39;17.65;;;7.40;;
65377;SDS011;51982;51.042;13.806;2024-01-11T07:35:05;15.50;;;8.07;;
65377;SDS011;51982;51.042;13.806;2024-01-11T07:37:31;16.10;;;6.82;;
65377;SDS011;51982;51.042;13.806;2024-01-11T07:39:57;19.48;;;7.68;;
65377;SDS011;51982;51.042;13.806;2024-01-11T07:42:22;17.60;;;7.95;;
65377;SDS011;51982;51.042;13.806;2024-01-11T07:44:47;16.77;;;8.05;;
65377;SDS011;51982;51.042;13.806;2024-01-11T07:47:12;22.42;;;8.75;;
65377;SDS011;51982;51.042;13.806;2024-01-11T07:49:38;22.88;;;9.20;;
65377;SDS011;51982;51.042;13.806;2024-01-11T07:52:03;20.40;;;7.55;;
65377;SDS011;51982;51.042;13.806;2024-01-11T07:54:29;20.70;;;7.70;;
65377;SDS011;51982;51.042;13.806;2024-01-11T07:56:56;18.92;;;7.75;;
65377;SDS011;51982;51.042;13.806;2024-01-11T07:59:21;19.05;;;7.97;;
65377;SDS011;51982;51.042;13.806;2024-01-11T08:01:46;19.73;;;7.65;;
65377;SDS011;51982;51.042;13.806;2024-01-11T08:04:13;19.23;;;8.20;;
65377;SDS011;51982;51.042;13.806;2024-01-11T08:06:38;16.35;;;7.90;;
65377;SDS011;51982;51.042;13.806;2024-01-11T08:09:03;13.90;;;6.50;;
65377;SDS011;51982;51.042;13.806;2024-01-11T08:11:29;20.67;;;7.03;;
65377;SDS011;51982;51.042;13.806;2024-01-11T08:13:56;15.57;;;7.50;;
65377;SDS011;51982;51.042;13.806;2024-01-11T08:16:21;17.27;;;7.85;;
65377;SDS011;51982;51.042;13.806;2024-01-11T08:18:46;18.90;;;7.72;;
65377;SDS011;51982;51.042;13.806;2024-01-11T08:21:13;19.25;;;8.18;;
65377;SDS011;51982;51.042;13.806;2024-01-11T08:23:39;20.63;;;9.45;;
65377;SDS011;51982;51.042;13.806;2024-01-11T08:26:09;17.48;;;7.85;;
65377;SDS011;51982;51.042;13.806;2024-01-11T08:28:35;20.10;;;9.02;;
65377;SDS011;51982;51.042;13.806;2024-01-11T08:31:01;44.38;;;15.63;;
65377;SDS011;51982;51.042;13.806;2024-01-11T08:33:26;42.80;;;14.50;;
65377;SDS011;51982;51.042;13.806;2024-01-11T08:35:51;27.25;;;10.05;;
65377;SDS011;51982;51.042;13.806;2024-01-11T08:38:16;29.08;;;9.50;;
65377;SDS011;51982;51.042;13.806;2024-01-11T08:40:41;22.42;;;8.45;;
65377;SDS011;51982;51.042;13.806;2024-01-11T08:43:07;16.88;;;8.30;;
65377;SDS011;51982;51.042;13.806;2024-01-11T08:45:32;21.85;;;8.07;;
65377;SDS011;51982;51.042;13.806;2024-01-11T08:47:57;16.63;;;8.10;;
65377;SDS011;51982;51.042;13.806;2024-01-11T08:50:22;32.90;;;9.05;;
65377;SDS011;51982;51.042;13.806;2024-01-11T08:52:48;18.13;;;8.20;;
65377;SDS011;51982;51.042;13.806;2024-01-11T08:55:13;19.60;;;8.13;;
65377;SDS011;51982;51.042;13.806;2024-01-11T08:57:38;14.57;;;7.07;;
65377;SDS011;51982;51.042;13.806;2024-01-11T09:00:04;15.45;;;7.45;;
65377;SDS011;51982;51.042;13.806;2024-01-11T09:02:31;19.38;;;7.90;;
65377;SDS011;51982;51.042;13.806;2024-01-11T09:04:56;19.10;;;7.20;;
65377;SDS011;51982;51.042;13.806;2024-01-11T09:07:21;24.38;;;8.18;;
65377;SDS011;51982;51.042;13.806;2024-01-11T09:09:47;20.83;;;8.02;;
65377;SDS011;51982;51.042;13.806;2024-01-11T09:12:12;18.13;;;8.02;;
65377;SDS011;51982;51.042;13.806;2024-01-11T09:14:37;19.08;;;8.63;;
65377;SDS011;51982;51.042;13.806;2024-01-11T09:17:04;18.88;;;8.25;;
65377;SDS011;51982;51.042;13.806;2024-01-11T09:19:31;22.85;;;9.10;;
65377;SDS011;51982;51.042;13.806;2024-01-11T09:21:58;22.30;;;9.40;;
65377;SDS011;51982;51.042;13.806;2024-01-11T09:24:23;24.73;;;9.02;;
65377;SDS011;51982;51.042;13.806;2024-01-11T09:26:49;23.42;;;9.05;;
65377;SDS011;51982;51.042;13.806;2024-01-11T09:29:15;20.98;;;9.02;;
65377;SDS011;51982;51.042;13.806;2024-01-11T09:31:40;21.73;;;9.68;;
65377;SDS011;51982;51.042;13.806;2024-01-11T09:34:07;26.90;;;11.32;;
65377;SDS011;51982;51.042;13.806;2024-01-11T09:36:32;19.40;;;7.70;;
65377;SDS011;51982;51.042;13.806;2024-01-11T09:38:58;24.60;;;11.07;;
65377;SDS011;51982;51.042;13.806;2024-01-11T09:41:23;28.63;;;12.35;;
65377;SDS011;51982;51.042;13.806;2024-01-11T09:43:49;28.33;;;12.35;;
65377;SDS011;51982;51.042;13.806;2024-01-11T09:46:18;34.85;;;12.27;;
65377;SDS011;51982;51.042;13.806;2024-01-11T09:48:45;33.22;;;13.52;;
65377;SDS011;51982;51.042;13.806;2024-01-11T09:51:13;29.40;;;13.30;;
65377;SDS011;51982;51.042;13.806;2024-01-11T09:53:38;31.63;;;13.65;;
65377;SDS011;51982;51.042;13.806;2024-01-11T09:56:07;28.48;;;12.32;;
65377;SDS011;51982;51.042;13.806;2024-01-11T09:58:34;33.50;;;12.93;;
65377;SDS011;51982;51.042;13.806;2024-01-11T10:01:03;25.58;;;11.88;;
65377;SDS011;51982;51.042;13.806;2024-01-11T10:03:33;35.38;;;14.15;;
65377;SDS011;51982;51.042;13.806;2024-01-11T10:05:59;34.50;;;15.35;;
65377;SDS011;51982;51.042;13.806;2024-01-11T10:08:26;35.85;;;15.13;;
65377;SDS011;51982;51.042;13.806;2024-01-11T10:10:52;37.03;;;14.40;;
65377;SDS011;51982;51.042;13.806;2024-01-11T10:13:17;32.08;;;13.50;;
65377;SDS011;51982;51.042;13.806;2024-01-11T10:15:43;31.88;;;14.32;;
65377;SDS011;51982;51.042;13.806;2024-01-11T10:18:08;47.97;;;16.25;;
65377;SDS011;51982;51.042;13.806;2024-01-11T10:20:34;33.90;;;14.85;;
65377;SDS011;51982;51.042;13.806;2024-01-11T10:22:59;35.75;;;15.52;;
65377;SDS011;51982;51.042;13.806;2024-01-11T10:25:24;37.83;;;15.63;;
65377;SDS011;51982;51.042;13.806;2024-01-11T10:27:50;39.88;;;16.30;;
65377;SDS011;51982;51.042;13.806;2024-01-11T10:30:15;38.38;;;16.05;;
65377;SDS011;51982;51.042;13.806;2024-01-11T10:32:44;37.35;;;15.98;;
65377;SDS011;51982;51.042;13.806;2024-01-11T10:35:11;44.75;;;17.15;;
65377;SDS011;51982;51.042;13.806;2024-01-11T10:37:37;34.97;;;14.48;;
65377;SDS011;51982;51.042;13.806;2024-01-11T10:40:06;42.60;;;15.82;;
65377;SDS011;51982;51.042;13.806;2024-01-11T10:42:36;41.38;;;15.95;;
65377;SDS011;51982;51.042;13.806;2024-01-11T10:45:08;37.88;;;16.63;;
65377;SDS011;51982;51.042;13.806;2024-01-11T10:47:38;41.95;;;16.63;;
65377;SDS011;51982;51.042;13.806;2024-01-11T10:50:10;44.40;;;16.95;;
65377;SDS011;51982;51.042;13.806;2024-01-11T10:52:40;36.65;;;16.38;;
65377;SDS011;51982;51.042;13.806;2024-01-11T10:55:11;44.00;;;16.65;;
65377;SDS011;51982;51.042;13.806;2024-01-11T10:57:37;39.22;;;16.73;;
65377;SDS011;51982;51.042;13.806;2024-01-11T11:00:02;49.80;;;19.02;;
65377;SDS011;51982;51.042;13.806;2024-01-11T11:02:29;42.67;;;18.15;;
65377;SDS011;51982;51.042;13.806;2024-01-11T11:04:54;41.85;;;16.98;;
65377;SDS011;51982;51.042;13.806;2024-01-11T11:07:21;54.53;;;18.98;;
65377;SDS011;51982;51.042;13.806;2024-01-11T11:09:48;53.28;;;19.80;;
65377;SDS011;51982;51.042;13.806;2024-01-11T11:12:14;49.83;;;19.65;;
65377;SDS011;51982;51.042;13.806;2024-01-11T11:14:41;52.30;;;20.60;;
65377;SDS011;51982;51.042;13.806;2024-01-11T11:17:09;46.05;;;19.80;;
65377;SDS011;51982;51.042;13.806;2024-01-11T11:19:34;38.72;;;17.15;;
65377;SDS011;51982;51.042;13.806;2024-01-11T11:21:59;39.80;;;15.63;;
65377;SDS011;51982;51.042;13.806;2024-01-11T11:24:29;50.55;;;20.00;;
65377;SDS011;51982;51.042;13.806;2024-01-11T11:26:54;44.75;;;17.83;;
65377;SDS011;51982;51.042;13.806;2024-01-11T11:29:22;45.05;;;17.25;;
65377;SDS011;51982;51.042;13.806;2024-01-11T11:31:47;51.85;;;19.73;;
65377;SDS011;51982;51.042;13.806;2024-01-11T11:34:18;42.58;;;17.98;;
65377;SDS011;51982;51.042;13.806;2024-01-11T11:36:45;50.70;;;19.80;;
65377;SDS011;51982;51.042;13.806;2024-01-11T11:39:11;44.13;;;18.08;;
65377;SDS011;51982;51.042;13.806;2024-01-11T11:41:36;43.65;;;19.55;;
65377;SDS011;51982;51.042;13.806;2024-01-11T11:44:03;45.22;;;19.63;;
65377;SDS011;51982;51.042;13.806;2024-01-11T11:46:30;48.25;;;19.33;;
65377;SDS011;51982;51.042;13.806;2024-01-11T11:48:56;56.95;;;18.95;;
65377;SDS011;51982;51.042;13.806;2024-01-11T11:51:22;47.20;;;20.23;;
65377;SDS011;51982;51.042;13.806;2024-01-11T11:53:49;41.05;;;16.40;;
65377;SDS011;51982;51.042;13.806;2024-01-11T11:56:16;25.02;;;12.63;;
65377;SDS011;51982;51.042;13.806;2024-01-11T11:58:44;37.10;;;14.98;;
65377;SDS011;51982;51.042;13.806;2024-01-11T12:01:10;42.38;;;16.23;;
65377;SDS011;51982;51.042;13.806;2024-01-11T12:03:36;44.13;;;18.63;;
65377;SDS011;51982;51.042;13.806;2024-01-11T12:06:04;38.33;;;15.70;;
65377;SDS011;51982;51.042;13.806;2024-01-11T12:08:31;37.45;;;15.75;;
65377;SDS011;51982;51.042;13.806;2024-01-11T12:10:57;37.00;;;16.52;;
65377;SDS011;51982;51.042;13.806;2024-01-11T12:13:22;39.92;;;14.75;;
65377;SDS011;51982;51.042;13.806;2024-01-11T12:15:49;38.33;;;14.90;;
65377;SDS011;51982;51.042;13.806;2024-01-11T12:18:14;28.42;;;12.18;;
65377;SDS011;51982;51.042;13.806;2024-01-11T12:20:39;41.13;;;17.02;;
65377;SDS011;51982;51.042;13.806;2024-01-11T12:23:05;34.90;;;14.27;;
65377;SDS011;51982;51.042;13.806;2024-01-11T12:25:31;35.80;;;13.88;;
65377;SDS011;51982;51.042;13.806;2024-01-11T12:27:56;29.23;;;12.48;;
65377;SDS011;51982;51.042;13.806;2024-01-11T12:30:22;25.75;;;11.10;;
65377;SDS011;51982;51.042;13.806;2024-01-11T12:32:48;36.50;;;14.55;;
65377;SDS011;51982;51.042;13.806;2024-01-11T12:35:14;40.90;;;16.60;;
65377;SDS011;51982;51.042;13.806;2024-01-11T12:37:39;44.15;;;16.90;;
65377;SDS011;51982;51.042;13.806;2024-01-11T12:40:05;31.10;;;13.18;;
65377;SDS011;51982;51.042;13.806;2024-01-11T12:42:33;41.60;;;16.50;;
65377;SDS011;51982;51.042;13.806;2024-01-11T12:45:00;37.42;;;16.15;;
65377;SDS011;51982;51.042;13.806;2024-01-11T12:47:25;26.05;;;11.15;;
65377;SDS011;51982;51.042;13.806;2024-01-11T12:49:50;38.92;;;17.13;;
65377;SDS011;51982;51.042;13.806;2024-01-11T12:52:17;44.08;;;17.40;;
65377;SDS011;51982;51.042;13.806;2024-01-11T12:54:45;39.80;;;16.85;;
65377;SDS011;51982;51.042;13.806;2024-01-11T12:57:17;40.10;;;16.02;;
65377;SDS011;51982;51.042;13.806;2024-01-11T12:59:44;47.67;;;17.30;;
65377;SDS011;51982;51.042;13.806;2024-01-11T13:02:10;48.95;;;18.30;;
65377;SDS011;51982;51.042;13.806;2024-01-11T13:04:38;39.05;;;16.45;;
65377;SDS011;51982;51.042;13.806;2024-01-11T13:07:04;39.72;;;16.13;;
65377;SDS011;51982;51.042;13.806;2024-01-11T13:09:29;34.42;;;12.82;;
65377;SDS011;51982;51.042;13.806;2024-01-11T13:11:54;33.25;;;12.55;;
65377;SDS011;51982;51.042;13.806;2024-01-11T13:14:19;36.30;;;15.30;;
65377;SDS011;51982;51.042;13.806;2024-01-11T13:16:45;29.33;;;13.02;;
65377;SDS011;51982;51.042;13.806;2024-01-11T13:19:11;26.55;;;12.32;;
65377;SDS011;51982;51.042;13.806;2024-01-11T13:21:36;32.83;;;13.52;;
65377;SDS011;51982;51.042;13.806;2024-01-11T13:24:02;37.78;;;15.75;;
65377;SDS011;51982;51.042;13.806;2024-01-11T13:26:28;27.88;;;11.88;;
65377;SDS011;51982;51.042;13.806;2024-01-11T13:28:53;42.42;;;16.42;;
65377;SDS011;51982;51.042;13.806;2024-01-11T13:31:18;35.53;;;15.15;;
65377;SDS011;51982;51.042;13.806;2024-01-11T13:33:45;31.45;;;12.35;;
65377;SDS011;51982;51.042;13.806;2024-01-11T13:36:11;28.70;;;11.70;;
65377;SDS011;51982;51.042;13.806;2024-01-11T13:38:36;34.22;;;13.38;;
65377;SDS011;51982;51.042;13.806;2024-01-11T13:41:01;34.15;;;13.23;;
65377;SDS011;51982;51.042;13.806;2024-01-11T13:43:26;37.47;;;15.15;;
65377;SDS011;51982;51.042;13.806;2024-01-11T13:45:52;37.85;;;14.77;;
65377;SDS011;51982;51.042;13.806;2024-01-11T13:48:17;41.08;;;16.23;;
65377;SDS011;51982;51.042;13.806;2024-01-11T13:50:42;34.97;;;14.85;;
65377;SDS011;51982;51.042;13.806;2024-01-11T13:53:07;20.50;;;9.63;;
65377;SDS011;51982;51.042;13.806;2024-01-11T13:55:33;19.02;;;8.02;;
65377;SDS011;51982;51.042;13.806;2024-01-11T13:58:02;35.90;;;14.38;;
65377;SDS011;51982;51.042;13.806;2024-01-11T14:00:28;35.60;;;13.68;;
65377;SDS011;51982;51.042;13.806;2024-01-11T14:02:54;49.72;;;16.92;;
65377;SDS011;51982;51.042;13.806;2024-01-11T14:05:19;40.33;;;15.93;;
65377;SDS011;51982;51.042;13.806;2024-01-11T14:07:45;32.90;;;14.02;;